Terminal Aerodrome Forecast
Issued by NWS Charleston, WV

Current Version | Previous Version | Text Only | Print | Product List | Glossary Off
Versions: 1 2 3 4 5 6 7 8 9 10 11 12 13 14 15 16 17 18 19 20 21 22 23 24 25 26 27 28 29

000
FTUS41 KRLX 190948 AAB
TAFBKW
TAF AMD
KBKW 190948Z 1910/2006 25003KT 5SM BR BKN002
     FM191200 26005KT P6SM SCT003 SCT050
     FM191400 27008KT P6SM SCT200=

USA.gov is the U.S. government's official web portal to all federal, state and local government web resources and services.